Time;durP1;ratioP1;P1;durP2;ratioP2;P2;SDS_P1;SDS_P2;PMS_P1;PMS_P2;Temp;Humidity;BMP_temperature;BMP_pressure;BME280_temperature;BME280_humidity;BME280_pressure;Samples;Min_cycle;Max_cycle;Signal;HPM_P1;HPM_P2
2023/12/17 00:01:36;;;;;;;;;;;;;;;25.65;29.97;96251.19;5070859;28;7258;-65
2023/12/17 00:04:12;;;;;;;;;;;;;;;25.68;30.54;96253.03;5079187;28;7847;-65
2023/12/17 00:06:40;;;;;;;;;;;;;;;25.68;30.04;96255.78;5063611;28;7028;-65
2023/12/17 00:09:12;;;;;;;;;;;;;;;25.67;30.11;96264.50;5064826;28;7229;-64
2023/12/17 00:11:41;;;;;;;;;;;;;;;25.68;30.86;96264.03;5057629;28;6975;-65
2023/12/17 00:14:31;;;;;;;;;;;;;;;25.69;31.16;96259.28;5056628;28;9122;-65
2023/12/17 00:16:58;;;;;;;;;;;;;;;25.68;30.60;96263.28;5068685;28;7276;-65
2023/12/17 00:19:24;;;;;;;;;;;;;;;25.69;30.86;96254.53;5053235;28;9129;-65
2023/12/17 00:21:50;;;;;;;;;;;;;;;25.68;30.70;96242.00;5061940;28;7260;-65
2023/12/17 00:24:17;;;;;;;;;;;;;;;25.72;31.32;96228.81;5064248;28;7232;-65
2023/12/17 00:26:46;;;;;;;;;;;;;;;25.74;30.99;96222.81;5066253;28;9435;-65
2023/12/17 00:29:29;;;;;;;;;;;;;;;25.73;30.96;96233.06;5066378;28;7204;-65
2023/12/17 00:31:59;;;;;;;;;;;;;;;25.70;30.91;96245.03;5062041;28;8843;-65
2023/12/17 00:34:41;;;;;;;;;;;;;;;25.69;31.63;96243.50;5080922;28;7278;-65
2023/12/17 00:37:17;;;;;;;;;;;;;;;25.69;30.53;96238.00;5081396;28;7151;-65
2023/12/17 00:39:45;;;;;;;;;;;;;;;25.67;31.88;96221.16;5056944;28;8779;-65
2023/12/17 00:42:42;;;;;;;;;;;;;;;25.69;31.39;96217.94;5079198;28;7130;-65
2023/12/17 00:45:19;;;;;;;;;;;;;;;25.68;31.54;96227.44;4979872;28;9235;-65
2023/12/17 00:47:48;;;;;;;;;;;;;;;25.67;31.42;96229.44;4975415;28;8699;-65
2023/12/17 00:50:22;;;;;;;;;;;;;;;25.63;31.59;96217.81;4981084;28;6979;-65
2023/12/17 00:52:48;;;;;;;;;;;;;;;25.65;31.88;96218.13;4987464;28;7218;-65
2023/12/17 00:55:25;;;;;;;;;;;;;;;25.67;31.62;96214.88;4956849;28;7033;-64
2023/12/17 00:57:53;;;;;;;;;;;;;;;25.66;31.01;96211.38;4963274;28;7224;-65
2023/12/17 01:00:20;;;;;;;;;;;;;;;25.67;32.31;96223.16;4955157;28;6962;-65
2023/12/17 01:02:55;;;;;;;;;;;;;;;25.68;31.58;96216.41;4977408;28;7402;-65
2023/12/17 01:05:23;;;;;;;;;;;;;;;25.61;31.83;96214.00;4971061;28;9104;-65
2023/12/17 01:07:59;;;;;;;;;;;;;;;25.63;31.27;96217.06;4948009;28;7629;-61
2023/12/17 01:10:25;;;;;;;;;;;;;;;25.64;31.34;96213.09;4979830;28;8823;-61
2023/12/17 01:12:51;;;;;;;;;;;;;;;25.64;32.10;96213.84;4973725;28;9007;-61
2023/12/17 01:15:17;;;;;;;;;;;;;;;25.65;31.23;96226.38;4966301;28;7227;-61
2023/12/17 01:17:43;;;;;;;;;;;;;;;25.64;32.27;96230.38;4979493;28;8399;-61
2023/12/17 01:20:11;;;;;;;;;;;;;;;25.66;31.46;96227.16;4973693;28;7165;-61
2023/12/17 01:22:37;;;;;;;;;;;;;;;25.67;32.40;96226.69;5074266;28;7233;-61
2023/12/17 01:25:07;;;;;;;;;;;;;;;25.66;32.24;96227.16;5038391;28;8363;-61
2023/12/17 01:27:49;;;;;;;;;;;;;;;25.64;31.95;96222.13;5062564;28;9250;-61
2023/12/17 01:30:28;;;;;;;;;;;;;;;25.63;31.73;96217.81;5050923;28;7274;-61
2023/12/17 01:32:54;;;;;;;;;;;;;;;25.64;32.45;96224.88;5052583;28;9022;-61
2023/12/17 01:35:21;;;;;;;;;;;;;;;25.63;32.04;96228.84;5063273;28;7065;-61
2023/12/17 01:37:50;;;;;;;;;;;;;;;25.62;32.71;96226.56;5069085;28;7430;-61
2023/12/17 01:40:17;;;;;;;;;;;;;;;25.63;32.08;96217.06;5050292;28;7299;-61
2023/12/17 01:42:46;;;;;;;;;;;;;;;25.59;32.27;96211.72;5059916;28;9093;-61
2023/12/17 01:45:39;;;;;;;;;;;;;;;25.59;32.00;96217.22;5055267;28;7357;-61
2023/12/17 01:48:38;;;;;;;;;;;;;;;25.60;32.78;96218.75;5055674;28;8741;-61
2023/12/17 01:51:04;;;;;;;;;;;;;;;25.62;32.58;96210.78;5017270;28;7309;-61
2023/12/17 01:53:55;;;;;;;;;;;;;;;25.61;32.71;96201.00;5021693;28;8745;-61
2023/12/17 01:56:34;;;;;;;;;;;;;;;25.59;32.84;96221.97;5024968;28;7010;-61
2023/12/17 01:59:32;;;;;;;;;;;;;;;25.58;32.06;96229.47;5015434;28;8618;-61
2023/12/17 02:02:01;;;;;;;;;;;;;;;25.58;32.63;96225.97;4968809;28;7087;-61
2023/12/17 02:04:46;;;;;;;;;;;;;;;25.58;32.92;96226.72;4977769;28;9471;-61
2023/12/17 02:07:14;;;;;;;;;;;;;;;25.57;33.02;96216.94;4983718;28;6927;-62
2023/12/17 02:10:09;;;;;;;;;;;;;;;25.54;32.16;96215.09;4977996;28;6957;-62
2023/12/17 02:13:10;;;;;;;;;;;;;;;25.58;32.24;96220.47;4897219;29;8620;-61
2023/12/17 02:15:41;;;;;;;;;;;;;;;25.56;32.81;96229.19;4840359;29;7268;-61
2023/12/17 02:18:20;;;;;;;;;;;;;;;25.56;32.81;96220.91;4832793;29;6897;-61
2023/12/17 02:21:01;;;;;;;;;;;;;;;25.54;32.89;96217.88;4846391;29;7167;-61
2023/12/17 02:23:38;;;;;;;;;;;;;;;25.51;32.79;96218.81;4824801;29;7192;-61
2023/12/17 02:26:16;;;;;;;;;;;;;;;25.52;33.48;96228.59;4846012;29;7444;-61
2023/12/17 02:28:57;;;;;;;;;;;;;;;25.52;32.95;96222.31;4828947;29;7297;-61
2023/12/17 02:31:25;;;;;;;;;;;;;;;25.50;33.16;96213.75;4843072;29;7181;-62
2023/12/17 02:34:14;;;;;;;;;;;;;;;25.51;33.47;96218.03;4844925;29;9766;-61
2023/12/17 02:37:17;;;;;;;;;;;;;;;25.51;33.38;96220.78;4839193;29;7475;-61
2023/12/17 02:39:46;;;;;;;;;;;;;;;25.51;33.19;96218.03;4870553;29;7361;-61
2023/12/17 02:42:45;;;;;;;;;;;;;;;25.50;32.95;96219.25;4871789;29;9048;-61
2023/12/17 02:45:22;;;;;;;;;;;;;;;25.49;32.71;96229.50;4824971;29;8298;-61
2023/12/17 02:48:02;;;;;;;;;;;;;;;25.50;33.57;96231.06;4831564;29;7109;-61
2023/12/17 02:50:29;;;;;;;;;;;;;;;25.50;32.75;96235.78;4867694;29;7046;-61
2023/12/17 02:53:07;;;;;;;;;;;;;;;25.48;33.29;96244.53;4894146;29;9298;-61
2023/12/17 02:55:42;;;;;;;;;;;;;;;25.48;33.63;96260.28;4914724;29;7226;-61
2023/12/17 02:58:28;;;;;;;;;;;;;;;25.48;33.12;96244.53;4889411;29;6970;-61
2023/12/17 03:01:03;;;;;;;;;;;;;;;25.52;32.73;96241.59;4915488;29;7253;-61
2023/12/17 03:03:29;;;;;;;;;;;;;;;25.51;33.03;96240.09;4889507;29;7685;-61
2023/12/17 03:05:55;;;;;;;;;;;;;;;25.50;32.99;96238.53;4904242;29;7925;-61
2023/12/17 03:08:21;;;;;;;;;;;;;;;25.50;33.27;96236.56;4901250;29;6974;-61
2023/12/17 03:11:06;;;;;;;;;;;;;;;25.52;32.78;96234.09;4885253;29;7148;-62
2023/12/17 03:13:36;;;;;;;;;;;;;;;25.55;33.66;96224.16;4938814;28;7095;-61
2023/12/17 03:16:31;;;;;;;;;;;;;;;25.53;33.64;96221.88;4972176;28;7203;-61
2023/12/17 03:18:58;;;;;;;;;;;;;;;25.54;33.44;96220.63;4960465;28;9185;-62
2023/12/17 03:21:29;;;;;;;;;;;;;;;25.56;33.63;96225.66;5028325;28;7247;-62
2023/12/17 03:23:57;;;;;;;;;;;;;;;25.54;33.33;96239.91;5038895;28;9160;-61
2023/12/17 03:26:25;;;;;;;;;;;;;;;25.57;33.71;96225.22;5057931;28;7112;-65
2023/12/17 03:28:51;;;;;;;;;;;;;;;25.55;32.93;96222.16;5056077;28;7305;-64
2023/12/17 03:31:17;;;;;;;;;;;;;;;25.52;33.64;96220.31;5054588;28;6992;-66
2023/12/17 03:33:55;;;;;;;;;;;;;;;25.53;33.60;96232.88;5073105;28;7062;-65
2023/12/17 03:36:49;;;;;;;;;;;;;;;25.53;33.61;96243.13;5054218;28;8789;-65
2023/12/17 03:39:37;;;;;;;;;;;;;;;25.55;33.05;96235.94;5060974;28;9018;-65
2023/12/17 03:42:07;;;;;;;;;;;;;;;25.53;33.66;96230.13;5047658;28;9422;-65
2023/12/17 03:44:50;;;;;;;;;;;;;;;25.55;33.74;96233.19;5069536;28;7366;-65
2023/12/17 03:47:19;;;;;;;;;;;;;;;25.55;33.63;96227.66;5043353;28;7005;-65
2023/12/17 03:49:50;;;;;;;;;;;;;;;25.55;32.97;96227.66;5043886;28;7321;-65
2023/12/17 03:52:44;;;;;;;;;;;;;;;25.53;32.99;96223.84;5043787;28;7071;-65
2023/12/17 03:55:31;;;;;;;;;;;;;;;25.54;33.95;96237.16;5067448;28;9299;-65
2023/12/17 03:58:16;;;;;;;;;;;;;;;25.56;33.88;96228.41;5070685;28;7327;-65
2023/12/17 04:00:56;;;;;;;;;;;;;;;25.57;33.66;96225.22;5057580;28;7147;-65
2023/12/17 04:03:32;;;;;;;;;;;;;;;25.58;33.96;96226.72;5056781;28;8841;-65
2023/12/17 04:06:08;;;;;;;;;;;;;;;25.55;33.82;96227.66;5062682;28;7184;-65
2023/12/17 04:08:36;;;;;;;;;;;;;;;25.52;33.27;96217.56;5054587;28;7242;-65
2023/12/17 04:11:35;;;;;;;;;;;;;;;25.53;33.98;96235.63;5051405;28;9158;-65
2023/12/17 04:14:02;;;;;;;;;;;;;;;25.52;33.06;96233.31;5012613;28;7696;-65
2023/12/17 04:16:37;;;;;;;;;;;;;;;25.53;33.01;96224.63;4997840;28;7110;-65
2023/12/17 04:19:14;;;;;;;;;;;;;;;25.54;33.73;96223.38;5013209;28;9023;-65
2023/12/17 04:21:50;;;;;;;;;;;;;;;25.54;33.59;96215.09;5010578;28;9101;-65
2023/12/17 04:24:26;;;;;;;;;;;;;;;25.52;33.82;96216.78;4993318;28;7258;-65
2023/12/17 04:26:52;;;;;;;;;;;;;;;25.56;34.17;96218.16;5009251;28;7559;-65
2023/12/17 04:29:19;;;;;;;;;;;;;;;25.52;33.51;96217.56;5017722;28;8214;-64
2023/12/17 04:31:45;;;;;;;;;;;;;;;25.55;33.76;96216.66;5007684;28;7160;-65
2023/12/17 04:34:33;;;;;;;;;;;;;;;25.51;34.16;96216.06;4997512;28;7410;-64
2023/12/17 04:37:08;;;;;;;;;;;;;;;25.55;33.92;96219.41;5016502;28;7142;-65
2023/12/17 04:39:45;;;;;;;;;;;;;;;25.54;34.03;96217.88;5004484;28;7253;-65
2023/12/17 04:42:15;;;;;;;;;;;;;;;25.52;33.96;96203.78;5031862;28;7264;-65
2023/12/17 04:44:57;;;;;;;;;;;;;;;25.54;33.42;96208.81;5041930;28;6946;-65
2023/12/17 04:47:26;;;;;;;;;;;;;;;25.53;33.81;96210.84;5029352;28;7164;-65
2023/12/17 04:50:00;;;;;;;;;;;;;;;25.52;33.83;96217.56;5034936;28;7207;-65
2023/12/17 04:52:28;;;;;;;;;;;;;;;25.51;33.75;96218.81;5057607;28;9155;-65
2023/12/17 04:54:54;;;;;;;;;;;;;;;25.54;34.30;96228.88;5051825;28;8837;-65
2023/12/17 04:57:21;;;;;;;;;;;;;;;25.54;33.92;96237.16;5069762;28;9135;-65
2023/12/17 04:59:48;;;;;;;;;;;;;;;25.52;33.32;96241.59;5072753;28;7217;-65
2023/12/17 05:02:16;;;;;;;;;;;;;;;25.52;34.01;96244.34;5063999;28;7061;-65
2023/12/17 05:04:42;;;;;;;;;;;;;;;25.53;34.36;96246.66;5055500;28;9473;-65
2023/12/17 05:07:16;;;;;;;;;;;;;;;25.53;33.84;96254.94;5061786;28;7132;-65
2023/12/17 05:09:44;;;;;;;;;;;;;;;25.52;33.92;96260.88;5056400;28;7220;-65
2023/12/17 05:12:13;;;;;;;;;;;;;;;25.49;33.81;96251.56;5050420;28;9498;-65
2023/12/17 05:14:53;;;;;;;;;;;;;;;25.53;33.69;96257.69;5061895;28;9439;-65
2023/12/17 05:17:35;;;;;;;;;;;;;;;25.54;33.84;96263.94;5072892;28;7261;-65
2023/12/17 05:20:34;;;;;;;;;;;;;;;25.54;33.59;96250.16;5047060;28;6993;-64
2023/12/17 05:23:00;;;;;;;;;;;;;;;25.58;34.19;96243.25;4975579;28;8200;-65
2023/12/17 05:25:27;;;;;;;;;;;;;;;25.63;34.19;96244.59;4982110;28;6978;-65
2023/12/17 05:28:03;;;;;;;;;;;;;;;25.64;33.24;96235.91;4993369;28;7416;-65
2023/12/17 05:30:29;;;;;;;;;;;;;;;25.62;34.02;96230.06;4966129;28;7590;-65
2023/12/17 05:32:57;;;;;;;;;;;;;;;25.62;34.20;96232.06;4989505;28;7375;-65
2023/12/17 05:35:24;;;;;;;;;;;;;;;25.66;33.46;96235.41;4987225;28;7279;-65
2023/12/17 05:37:51;;;;;;;;;;;;;;;25.66;33.46;96236.19;4965210;28;7479;-65
2023/12/17 05:40:20;;;;;;;;;;;;;;;25.70;33.91;96228.50;4988458;28;7428;-65
2023/12/17 05:42:51;;;;;;;;;;;;;;;25.72;33.03;96237.06;4972222;28;9129;-65
2023/12/17 05:45:19;;;;;;;;;;;;;;;25.71;33.57;96224.50;4975996;28;6974;-65
2023/12/17 05:47:50;;;;;;;;;;;;;;;25.69;33.89;96224.22;4988766;28;6982;-60
2023/12/17 05:50:31;;;;;;;;;;;;;;;25.74;33.58;96229.09;4990143;28;9286;-61
2023/12/17 05:53:08;;;;;;;;;;;;;;;25.67;33.65;96226.69;4990932;28;7197;-61
2023/12/17 05:55:47;;;;;;;;;;;;;;;25.71;33.34;96235.53;5001345;28;7079;-61
2023/12/17 05:58:14;;;;;;;;;;;;;;;25.72;33.60;96230.78;5017448;28;7041;-61
2023/12/17 06:00:42;;;;;;;;;;;;;;;25.69;33.99;96226.97;5060693;28;7066;-61
2023/12/17 06:03:13;;;;;;;;;;;;;;;25.73;33.63;96224.06;5053921;28;7302;-61
2023/12/17 06:05:42;;;;;;;;;;;;;;;25.72;33.82;96228.03;5064665;28;7870;-61
2023/12/17 06:08:17;;;;;;;;;;;;;;;25.72;33.42;96231.56;5054108;28;7240;-61
2023/12/17 06:10:47;;;;;;;;;;;;;;;25.73;33.25;96227.56;5064873;28;7044;-60
2023/12/17 06:13:21;;;;;;;;;;;;;;;25.73;33.00;96227.56;5056506;28;9037;-61
2023/12/17 06:15:48;;;;;;;;;;;;;;;25.71;33.25;96223.75;5069642;28;7966;-60
2023/12/17 06:18:29;;;;;;;;;;;;;;;25.70;33.55;96223.00;5053244;28;6998;-61
2023/12/17 06:21:06;;;;;;;;;;;;;;;25.73;34.05;96238.56;5055277;28;7277;-61
2023/12/17 06:23:41;;;;;;;;;;;;;;;25.71;33.19;96224.50;5043237;28;6981;-61
2023/12/17 06:26:13;;;;;;;;;;;;;;;25.75;33.77;96227.09;5051145;28;9141;-61
2023/12/17 06:28:50;;;;;;;;;;;;;;;25.74;32.92;96225.56;5064965;28;7224;-61
2023/12/17 06:31:25;;;;;;;;;;;;;;;25.70;33.23;96220.25;5059326;28;8930;-61
2023/12/17 06:33:55;;;;;;;;;;;;;;;25.76;33.07;96223.88;5064282;28;6941;-61
2023/12/17 06:36:29;;;;;;;;;;;;;;;25.77;32.91;96230.16;5051523;28;7634;-61
2023/12/17 06:39:09;;;;;;;;;;;;;;;25.76;33.18;96234.91;5044905;28;7261;-61
2023/12/17 06:41:48;;;;;;;;;;;;;;;25.72;33.35;96228.81;5043565;28;6999;-61
2023/12/17 06:44:16;;;;;;;;;;;;;;;25.74;32.84;96231.09;5054167;28;6983;-61
2023/12/17 06:46:49;;;;;;;;;;;;;;;25.74;33.19;96226.34;5039605;28;7210;-61
2023/12/17 06:49:17;;;;;;;;;;;;;;;25.74;33.23;96220.81;5052837;28;7214;-61
2023/12/17 06:51:43;;;;;;;;;;;;;;;25.69;33.01;96217.94;5047727;28;7225;-61
2023/12/17 06:54:09;;;;;;;;;;;;;;;25.73;33.73;96221.31;5067099;28;7288;-60
2023/12/17 06:56:36;;;;;;;;;;;;;;;25.74;33.69;96222.81;5043814;28;8999;-65
2023/12/17 06:59:12;;;;;;;;;;;;;;;25.72;33.23;96226.03;5063039;28;7232;-65
2023/12/17 07:01:38;;;;;;;;;;;;;;;25.72;33.08;96220.53;5061933;28;8626;-65
2023/12/17 07:04:06;;;;;;;;;;;;;;;25.74;33.70;96222.81;5065873;28;8288;-65
2023/12/17 07:06:43;;;;;;;;;;;;;;;25.71;33.11;96215.50;5053015;28;9067;-65
2023/12/17 07:09:13;;;;;;;;;;;;;;;25.72;33.25;96217.78;5045072;28;7068;-65
2023/12/17 07:11:39;;;;;;;;;;;;;;;25.71;33.21;96227.25;5050072;28;8839;-65
2023/12/17 07:14:07;;;;;;;;;;;;;;;25.72;33.70;96230.78;5066888;28;7189;-65
2023/12/17 07:16:35;;;;;;;;;;;;;;;25.68;33.04;96227.44;5051084;28;6999;-64
2023/12/17 07:19:01;;;;;;;;;;;;;;;25.73;32.94;96233.06;5050753;28;8658;-65
2023/12/17 07:21:27;;;;;;;;;;;;;;;25.72;33.32;96226.03;5054853;28;7414;-65
2023/12/17 07:24:03;;;;;;;;;;;;;;;25.73;33.07;96227.56;5050918;28;7039;-65
2023/12/17 07:26:42;;;;;;;;;;;;;;;25.74;33.71;96231.84;5065780;28;7168;-65
2023/12/17 07:29:09;;;;;;;;;;;;;;;25.73;33.63;96233.06;5064738;28;9651;-65
2023/12/17 07:31:35;;;;;;;;;;;;;;;25.72;33.07;96234.31;5056089;28;6860;-64
2023/12/17 07:34:02;;;;;;;;;;;;;;;25.73;33.34;96233.06;5058475;28;9503;-65
2023/12/17 07:36:28;;;;;;;;;;;;;;;25.72;33.25;96236.31;5050142;28;7318;-65
2023/12/17 07:38:57;;;;;;;;;;;;;;;25.73;33.17;96235.09;5038556;28;9092;-65
2023/12/17 07:41:22;;;;;;;;;;;;;;;25.73;33.26;96232.31;5065373;28;7034;-65
2023/12/17 07:43:48;;;;;;;;;;;;;;;25.72;33.26;96228.81;5056790;28;7229;-65
2023/12/17 07:46:14;;;;;;;;;;;;;;;25.73;33.00;96224.78;5077678;28;9234;-65
2023/12/17 07:48:41;;;;;;;;;;;;;;;25.71;33.74;96221.00;5054296;28;7195;-65
2023/12/17 07:51:09;;;;;;;;;;;;;;;25.74;33.26;96220.06;5071943;28;9043;-65
2023/12/17 07:53:35;;;;;;;;;;;;;;;25.69;33.24;96212.41;5061814;28;7316;-64
2023/12/17 07:56:01;;;;;;;;;;;;;;;25.73;33.77;96216.53;5070929;28;7158;-64
2023/12/17 07:58:31;;;;;;;;;;;;;;;25.73;33.63;96221.31;5056907;28;9026;-64
2023/12/17 08:01:01;;;;;;;;;;;;;;;25.75;33.44;96221.59;5072760;28;7131;-64
2023/12/17 08:03:35;;;;;;;;;;;;;;;25.75;33.73;96218.84;5080703;28;7547;-65
2023/12/17 08:06:20;;;;;;;;;;;;;;;25.74;33.85;96220.81;5052793;28;7247;-56
2023/12/17 08:08:56;;;;;;;;;;;;;;;25.76;33.33;96232.13;5080508;28;7436;-56
2023/12/17 08:11:28;;;;;;;;;;;;;;;25.71;33.42;96229.28;5055307;28;7219;-56
2023/12/17 08:13:57;;;;;;;;;;;;;;;25.71;33.91;96229.28;5079075;28;9312;-56
2023/12/17 08:16:37;;;;;;;;;;;;;;;25.68;34.14;96222.69;5056749;28;7466;-56
2023/12/17 08:19:23;;;;;;;;;;;;;;;25.69;34.13;96224.22;5071269;28;7272;-56
2023/12/17 08:21:56;;;;;;;;;;;;;;;25.69;34.06;96232.47;5080131;28;10065;-56
2023/12/17 08:24:30;;;;;;;;;;;;;;;25.71;33.95;96223.75;5073737;28;7416;-57
2023/12/17 08:27:08;;;;;;;;;;;;;;;25.71;34.15;96232.78;5042261;28;6988;-56
2023/12/17 08:29:37;;;;;;;;;;;;;;;25.68;34.48;96219.94;5078457;28;7100;-57
2023/12/17 08:32:04;;;;;;;;;;;;;;;25.71;34.15;96229.28;5077297;28;9118;-57
2023/12/17 08:34:39;;;;;;;;;;;;;;;25.69;33.80;96232.47;5058626;28;7061;-56
2023/12/17 08:37:07;;;;;;;;;;;;;;;25.70;33.98;96236.00;5046693;28;9352;-56
2023/12/17 08:39:39;;;;;;;;;;;;;;;25.72;34.79;96234.31;5058059;28;7084;-56
2023/12/17 08:42:05;;;;;;;;;;;;;;;25.70;34.22;96223.00;5056590;28;7068;-57
2023/12/17 08:44:50;;;;;;;;;;;;;;;25.72;34.87;96237.06;5049316;28;7308;-56
2023/12/17 08:47:16;;;;;;;;;;;;;;;25.71;34.13;96240.31;5041633;28;8721;-56
2023/12/17 08:49:48;;;;;;;;;;;;;;;25.76;34.19;96236.88;5069936;28;7588;-56
2023/12/17 08:52:22;;;;;;;;;;;;;;;25.78;34.31;96242.69;5070108;28;7245;-56
2023/12/17 08:54:52;;;;;;;;;;;;;;;25.77;34.07;96249.44;5067640;28;7254;-56
2023/12/17 08:57:22;;;;;;;;;;;;;;;25.79;33.71;96253.28;5074899;28;7316;-57
2023/12/17 09:00:07;;;;;;;;;;;;;;;25.74;33.80;96248.38;5067479;28;7040;-56
2023/12/17 09:02:35;;;;;;;;;;;;;;;25.77;34.15;96244.72;5074264;28;7175;-57
2023/12/17 09:05:05;;;;;;;;;;;;;;;25.78;34.30;96243.47;5070030;28;6987;-56
2023/12/17 09:07:38;;;;;;;;;;;;;;;25.78;34.45;96242.69;5086622;28;8313;-56
2023/12/17 09:10:14;;;;;;;;;;;;;;;25.79;34.50;96247.75;5063198;28;9170;-56
2023/12/17 09:12:42;;;;;;;;;;;;;;;25.82;34.79;96246.03;5065983;28;9255;-56
2023/12/17 09:15:10;;;;;;;;;;;;;;;25.82;34.30;96232.25;5067241;28;8820;-56
2023/12/17 09:17:43;;;;;;;;;;;;;;;25.83;34.03;96240.06;5067197;28;7193;-55
2023/12/17 09:20:13;;;;;;;;;;;;;;;25.83;34.62;96239.31;5065882;28;7213;-57
2023/12/17 09:22:40;;;;;;;;;;;;;;;25.83;34.31;96242.84;5067742;28;7218;-55
2023/12/17 09:25:07;;;;;;;;;;;;;;;25.81;34.29;96250.81;5072528;28;9010;-56
2023/12/17 09:27:35;;;;;;;;;;;;;;;25.82;34.59;96254.31;5062103;28;6984;-56
2023/12/17 09:30:04;;;;;;;;;;;;;;;25.84;34.39;96249.84;5066007;28;8821;-55
2023/12/17 09:32:30;;;;;;;;;;;;;;;25.86;34.98;96247.38;5067915;28;9005;-55
2023/12/17 09:34:59;;;;;;;;;;;;;;;25.86;34.44;96252.16;5063475;28;7087;-55
2023/12/17 09:37:26;;;;;;;;;;;;;;;25.88;34.30;96260.72;5076790;28;9127;-55
2023/12/17 09:39:53;;;;;;;;;;;;;;;25.87;34.34;96248.16;5085852;28;9054;-55
2023/12/17 09:42:20;;;;;;;;;;;;;;;25.86;34.57;96241.13;5068800;28;7068;-55
2023/12/17 09:44:45;;;;;;;;;;;;;;;25.87;34.12;96246.16;5065703;28;9434;-55
2023/12/17 09:47:13;;;;;;;;;;;;;;;25.88;34.18;96244.19;5069400;28;9165;-55
2023/12/17 09:49:42;;;;;;;;;;;;;;;25.85;34.90;96240.38;5082504;28;7268;-55
2023/12/17 09:52:18;;;;;;;;;;;;;;;25.86;34.55;96239.13;5071576;28;8728;-55
2023/12/17 09:54:49;;;;;;;;;;;;;;;25.84;35.32;96235.31;5063962;28;9136;-55
2023/12/17 09:57:19;;;;;;;;;;;;;;;25.81;35.43;96225.22;5066900;28;7339;-55
2023/12/17 09:59:47;;;;;;;;;;;;;;;25.84;35.66;96229.78;5069941;28;8774;-55
2023/12/17 10:02:16;;;;;;;;;;;;;;;25.86;35.68;96225.34;5085288;28;8754;-55
2023/12/17 10:04:43;;;;;;;;;;;;;;;25.86;35.26;96230.09;5065478;28;7221;-55
2023/12/17 10:07:09;;;;;;;;;;;;;;;25.87;36.00;96226.88;5067899;28;7272;-55
2023/12/17 10:09:36;;;;;;;;;;;;;;;25.85;35.20;96215.56;5085162;28;7119;-55
2023/12/17 10:12:06;;;;;;;;;;;;;;;25.83;36.17;96220.78;5076317;28;6992;-55
2023/12/17 10:14:32;;;;;;;;;;;;;;;25.89;35.49;96218.91;5065428;28;7221;-54
2023/12/17 10:17:02;;;;;;;;;;;;;;;25.89;36.00;96216.13;5069623;28;6992;-54
2023/12/17 10:19:28;;;;;;;;;;;;;;;25.91;36.08;96202.66;5069177;28;9537;-55
2023/12/17 10:21:58;;;;;;;;;;;;;;;25.89;35.51;96204.34;5073822;28;6974;-55
2023/12/17 10:24:37;;;;;;;;;;;;;;;25.87;35.50;96199.31;5072976;28;7239;-55
2023/12/17 10:27:16;;;;;;;;;;;;;;;25.89;35.98;96204.34;5072823;28;9495;-60
2023/12/17 10:29:46;;;;;;;;;;;;;;;25.89;35.81;96202.34;5070022;28;9034;-61
2023/12/17 10:32:13;;;;;;;;;;;;;;;25.89;35.47;96202.34;5072059;28;8095;-60
2023/12/17 10:34:41;;;;;;;;;;;;;;;25.88;34.97;96191.81;5066468;28;6998;-60
2023/12/17 10:37:09;;;;;;;;;;;;;;;25.91;34.89;96190.84;5072315;28;7151;-60
2023/12/17 10:39:41;;;;;;;;;;;;;;;25.94;34.71;96187.94;5072718;28;6916;-60
2023/12/17 10:42:08;;;;;;;;;;;;;;;25.95;33.90;96185.91;5074994;28;9815;-60
2023/12/17 10:44:40;;;;;;;;;;;;;;;25.98;34.01;96191.28;5082471;28;6993;-61
2023/12/17 10:47:12;;;;;;;;;;;;;;;25.98;34.95;96183.00;5062518;28;7228;-61
2023/12/17 10:49:39;;;;;;;;;;;;;;;25.97;34.77;96173.19;5064588;28;9121;-60
2023/12/17 10:52:12;;;;;;;;;;;;;;;25.97;34.59;96175.19;5058713;28;7149;-61
2023/12/17 10:54:41;;;;;;;;;;;;;;;25.91;34.49;96171.56;5055639;28;9107;-61
2023/12/17 10:57:14;;;;;;;;;;;;;;;25.87;35.03;96154.44;5058292;28;7039;-60
2023/12/17 10:59:48;;;;;;;;;;;;;;;25.78;34.81;96152.50;5047301;28;9129;-60
2023/12/17 11:02:21;;;;;;;;;;;;;;;25.77;34.88;96162.03;5057856;28;8777;-61
2023/12/17 11:05:03;;;;;;;;;;;;;;;25.74;35.33;96156.66;5054859;28;7037;-61
2023/12/17 11:07:32;;;;;;;;;;;;;;;25.72;35.13;96154.38;5074666;28;6933;-60
2023/12/17 11:10:01;;;;;;;;;;;;;;;25.68;35.75;96153.81;5047172;28;8500;-61
2023/12/17 11:12:40;;;;;;;;;;;;;;;25.68;35.70;96153.81;5053709;28;7221;-61
2023/12/17 11:15:09;;;;;;;;;;;;;;;25.68;35.92;96153.81;5062359;28;7074;-60
2023/12/17 11:17:41;;;;;;;;;;;;;;;25.67;35.99;96151.50;5055365;28;7296;-60
2023/12/17 11:20:08;;;;;;;;;;;;;;;25.70;35.71;96145.06;5049670;28;7068;-61
2023/12/17 11:23:07;;;;;;;;;;;;;;;25.67;35.98;96145.97;5061152;28;7507;-60
2023/12/17 11:25:35;;;;;;;;;;;;;;;25.64;36.03;96155.97;5047470;28;7201;-61
2023/12/17 11:28:02;;;;;;;;;;;;;;;25.64;36.54;96158.72;5051002;28;6979;-61
2023/12/17 11:30:32;;;;;;;;;;;;;;;25.65;36.67;96154.72;5053529;28;8800;-61
2023/12/17 11:33:02;;;;;;;;;;;;;;;25.65;36.57;96160.25;5075464;28;7050;-60
2023/12/17 11:35:40;;;;;;;;;;;;;;;25.63;36.99;96157.19;5055367;28;9242;-59
2023/12/17 11:38:06;;;;;;;;;;;;;;;25.63;36.76;96148.94;5060333;28;6967;-60
2023/12/17 11:40:45;;;;;;;;;;;;;;;25.66;36.53;96144.47;5073257;28;9047;-60
2023/12/17 11:43:17;;;;;;;;;;;;;;;25.68;36.61;96131.75;5073319;28;7273;-60
2023/12/17 11:45:50;;;;;;;;;;;;;;;25.71;36.46;96139.06;5051909;28;7181;-60
2023/12/17 11:48:21;;;;;;;;;;;;;;;25.72;36.89;96145.34;5055786;28;7042;-60
2023/12/17 11:50:54;;;;;;;;;;;;;;;25.75;36.61;96131.38;5055214;28;8281;-60
2023/12/17 11:53:22;;;;;;;;;;;;;;;25.77;36.84;96136.44;5068055;28;7151;-60
2023/12/17 11:56:03;;;;;;;;;;;;;;;25.78;36.92;96132.44;5053343;28;7203;-60
2023/12/17 11:58:31;;;;;;;;;;;;;;;25.78;37.37;96130.44;5077914;28;7262;-60
2023/12/17 12:01:09;;;;;;;;;;;;;;;25.77;38.05;96126.19;5065626;28;7226;-61
2023/12/17 12:03:43;;;;;;;;;;;;;;;25.77;37.52;96134.44;5062881;28;7220;-61
2023/12/17 12:06:17;;;;;;;;;;;;;;;25.79;37.97;96132.00;5056867;28;9161;-61
2023/12/17 12:08:55;;;;;;;;;;;;;;;25.73;33.78;96124.84;5066835;28;7379;-61
2023/12/17 12:11:57;;;;;;;;;;;;;;;25.54;30.37;96137.97;5049727;28;9431;-60
2023/12/17 12:14:24;;;;;;;;;;;;;;;25.42;27.93;96125.19;4976320;28;7206;-61
2023/12/17 12:16:51;;;;;;;;;;;;;;;25.29;26.97;96127.38;4997869;28;7268;-61
2023/12/17 12:19:24;;;;;;;;;;;;;;;25.25;27.09;96122.03;4994004;28;7220;-61
2023/12/17 12:21:50;;;;;;;;;;;;;;;25.30;28.83;96123.38;4988432;28;8776;-61
2023/12/17 12:24:21;;;;;;;;;;;;;;;25.35;28.94;96118.00;4997449;28;7172;-60
2023/12/17 12:26:49;;;;;;;;;;;;;;;25.40;29.63;96113.84;4987567;28;7745;-60
2023/12/17 12:29:16;;;;;;;;;;;;;;;25.46;29.12;96117.50;4992304;28;6996;-61
2023/12/17 12:31:52;;;;;;;;;;;;;;;25.51;29.04;96103.09;4970592;28;7097;-61
2023/12/17 12:34:34;;;;;;;;;;;;;;;25.45;29.41;96101.47;4977744;28;7065;-60
2023/12/17 12:37:01;;;;;;;;;;;;;;;25.46;29.42;96100.22;4995786;28;9151;-61
2023/12/17 12:39:28;;;;;;;;;;;;;;;25.44;29.99;96095.19;4978173;28;9088;-60
2023/12/17 12:41:54;;;;;;;;;;;;;;;25.48;30.25;96101.28;4999259;28;7085;-61
2023/12/17 12:44:23;;;;;;;;;;;;;;;25.51;30.09;96103.09;4996452;28;7066;-60
2023/12/17 12:46:49;;;;;;;;;;;;;;;25.53;30.25;96106.16;4992881;28;9617;-64
2023/12/17 12:49:18;;;;;;;;;;;;;;;25.57;30.60;96100.44;5051846;28;7235;-64
2023/12/17 12:51:48;;;;;;;;;;;;;;;25.62;30.21;96105.31;5062304;28;10102;-64
2023/12/17 12:54:16;;;;;;;;;;;;;;;25.62;31.09;96110.81;5059443;28;6990;-64
2023/12/17 12:56:50;;;;;;;;;;;;;;;25.62;30.59;96111.56;5076144;28;9495;-64
2023/12/17 12:59:18;;;;;;;;;;;;;;;25.62;31.16;96111.56;5047029;28;7219;-64
2023/12/17 13:01:45;;;;;;;;;;;;;;;25.62;30.82;96110.81;5054916;28;7058;-64
2023/12/17 13:04:11;;;;;;;;;;;;;;;25.62;30.88;96114.31;5071122;28;7599;-64
2023/12/17 13:06:42;;;;;;;;;;;;;;;25.64;30.62;96103.63;5057172;28;7551;-64
2023/12/17 13:09:11;;;;;;;;;;;;;;;25.65;30.61;96096.88;5056879;28;9171;-63
2023/12/17 13:11:39;;;;;;;;;;;;;;;25.65;31.02;96098.84;5075266;28;7202;-64
2023/12/17 13:14:07;;;;;;;;;;;;;;;25.63;30.95;96090.28;5056674;28;6951;-64
2023/12/17 13:16:36;;;;;;;;;;;;;;;25.65;30.84;96094.09;5060145;28;7072;-64
2023/12/17 13:19:04;;;;;;;;;;;;;;;25.61;30.59;96088.00;5045287;28;6985;-64
2023/12/17 13:21:33;;;;;;;;;;;;;;;25.63;30.72;96096.56;5074788;28;7228;-64
2023/12/17 13:24:02;;;;;;;;;;;;;;;25.62;31.30;96091.53;5059511;28;9485;-64
2023/12/17 13:26:37;;;;;;;;;;;;;;;25.61;31.28;96092.75;5062252;28;7076;-64